sensor_id;sensor_type;location;lat;lon;timestamp;pressure;altitude;pressure_sealevel;temperature;humidity
24234;BME280;12365;43.554;1.388;2023-02-04T00:00:08;101726.47;;;4.78;56.11
24234;BME280;12365;43.554;1.388;2023-02-04T00:02:34;101729.78;;;4.77;56.04
24234;BME280;12365;43.554;1.388;2023-02-04T00:04:59;101726.28;;;4.77;56.22
24234;BME280;12365;43.554;1.388;2023-02-04T00:07:25;101723.88;;;4.78;56.25
24234;BME280;12365;43.554;1.388;2023-02-04T00:09:50;101731.47;;;4.77;56.07
24234;BME280;12365;43.554;1.388;2023-02-04T00:12:16;101736.81;;;4.78;56.35
24234;BME280;12365;43.554;1.388;2023-02-04T00:14:41;101732.38;;;4.77;56.27
24234;BME280;12365;43.554;1.388;2023-02-04T00:17:07;101729.63;;;4.76;56.55
24234;BME280;12365;43.554;1.388;2023-02-04T00:19:34;101736.34;;;4.74;56.20
24234;BME280;12365;43.554;1.388;2023-02-04T00:22:00;101736.16;;;4.72;56.09
24234;BME280;12365;43.554;1.388;2023-02-04T00:24:25;101738.56;;;4.71;56.31
24234;BME280;12365;43.554;1.388;2023-02-04T00:26:51;101733.09;;;4.68;55.87
24234;BME280;12365;43.554;1.388;2023-02-04T00:29:16;101737.19;;;4.66;56.62
24234;BME280;12365;43.554;1.388;2023-02-04T00:31:41;101739.16;;;4.60;56.03
24234;BME280;12365;43.554;1.388;2023-02-04T00:34:07;101745.34;;;4.53;56.36
24234;BME280;12365;43.554;1.388;2023-02-04T00:36:32;101732.88;;;4.49;56.70
24234;BME280;12365;43.554;1.388;2023-02-04T00:38:57;101741.66;;;4.42;56.05
24234;BME280;12365;43.554;1.388;2023-02-04T00:41:23;101752.91;;;4.43;56.11
24234;BME280;12365;43.554;1.388;2023-02-04T00:43:48;101747.00;;;4.44;56.81
24234;BME280;12365;43.554;1.388;2023-02-04T00:46:14;101745.31;;;4.44;56.54
24234;BME280;12365;43.554;1.388;2023-02-04T00:48:39;101753.25;;;4.46;56.98
24234;BME280;12365;43.554;1.388;2023-02-04T00:51:04;101751.72;;;4.48;56.44
24234;BME280;12365;43.554;1.388;2023-02-04T00:53:30;101751.47;;;4.53;56.80
24234;BME280;12365;43.554;1.388;2023-02-04T00:55:55;101758.44;;;4.54;56.46
24234;BME280;12365;43.554;1.388;2023-02-04T00:58:20;101751.00;;;4.57;56.49
24234;BME280;12365;43.554;1.388;2023-02-04T01:00:46;101746.00;;;4.59;57.17
24234;BME280;12365;43.554;1.388;2023-02-04T01:03:11;101753.00;;;4.60;56.69
24234;BME280;12365;43.554;1.388;2023-02-04T01:05:37;101747.69;;;4.59;56.79
24234;BME280;12365;43.554;1.388;2023-02-04T01:08:02;101745.09;;;4.59;56.76
24234;BME280;12365;43.554;1.388;2023-02-04T01:10:27;101744.16;;;4.58;56.72
24234;BME280;12365;43.554;1.388;2023-02-04T01:12:53;101745.84;;;4.57;56.69
24234;BME280;12365;43.554;1.388;2023-02-04T01:15:18;101747.50;;;4.57;57.20
24234;BME280;12365;43.554;1.388;2023-02-04T01:17:44;101750.25;;;4.59;56.99
24234;BME280;12365;43.554;1.388;2023-02-04T01:20:10;101750.09;;;4.57;56.77
24234;BME280;12365;43.554;1.388;2023-02-04T01:22:35;101758.75;;;4.57;56.67
24234;BME280;12365;43.554;1.388;2023-02-04T01:25:01;101759.66;;;4.58;56.72
24234;BME280;12365;43.554;1.388;2023-02-04T01:27:26;101759.53;;;4.56;57.19
24234;BME280;12365;43.554;1.388;2023-02-04T01:29:52;101758.63;;;4.56;56.79
24234;BME280;12365;43.554;1.388;2023-02-04T01:32:17;101753.59;;;4.57;57.28
24234;BME280;12365;43.554;1.388;2023-02-04T01:34:43;101745.69;;;4.56;57.23
24234;BME280;12365;43.554;1.388;2023-02-04T01:37:08;101755.69;;;4.53;57.59
24234;BME280;12365;43.554;1.388;2023-02-04T01:39:34;101754.78;;;4.52;57.55
24234;BME280;12365;43.554;1.388;2023-02-04T01:42:01;101745.94;;;4.50;57.47
24234;BME280;12365;43.554;1.388;2023-02-04T01:44:27;101732.56;;;4.46;57.17
24234;BME280;12365;43.554;1.388;2023-02-04T01:46:53;101732.41;;;4.44;57.40
24234;BME280;12365;43.554;1.388;2023-02-04T01:49:19;101734.09;;;4.44;57.75
24234;BME280;12365;43.554;1.388;2023-02-04T01:51:45;101728.59;;;4.41;57.29
24234;BME280;12365;43.554;1.388;2023-02-04T01:54:12;101720.69;;;4.39;57.93
24234;BME280;12365;43.554;1.388;2023-02-04T01:56:40;101716.28;;;4.38;57.55
24234;BME280;12365;43.554;1.388;2023-02-04T01:59:12;101712.75;;;4.38;57.28
24234;BME280;12365;43.554;1.388;2023-02-04T02:01:39;101718.25;;;4.41;57.64
24234;BME280;12365;43.554;1.388;2023-02-04T02:04:07;101726.44;;;4.37;57.26
24234;BME280;12365;43.554;1.388;2023-02-04T02:06:34;101728.72;;;4.33;57.38
24234;BME280;12365;43.554;1.388;2023-02-04T02:09:01;101719.88;;;4.31;57.78
24234;BME280;12365;43.554;1.388;2023-02-04T02:11:27;101725.94;;;4.32;57.61
24234;BME280;12365;43.554;1.388;2023-02-04T02:13:53;101719.69;;;4.30;57.89
24234;BME280;12365;43.554;1.388;2023-02-04T02:16:18;101723.97;;;4.29;57.23
24234;BME280;12365;43.554;1.388;2023-02-04T02:18:45;101717.72;;;4.27;57.93
24234;BME280;12365;43.554;1.388;2023-02-04T02:21:13;101708.88;;;4.25;57.78
24234;BME280;12365;43.554;1.388;2023-02-04T02:26:16;101709.81;;;4.26;57.84
24234;BME280;12365;43.554;1.388;2023-02-04T02:28:43;101714.66;;;4.23;58.10
24234;BME280;12365;43.554;1.388;2023-02-04T02:31:09;101706.44;;;4.18;57.93
24234;BME280;12365;43.554;1.388;2023-02-04T02:33:35;101713.44;;;4.19;58.21
24234;BME280;12365;43.554;1.388;2023-02-04T02:36:01;101706.28;;;4.17;57.96
24234;BME280;12365;43.554;1.388;2023-02-04T02:38:26;101708.38;;;4.12;58.29
24234;BME280;12365;43.554;1.388;2023-02-04T02:40:52;101702.13;;;4.10;57.95
24234;BME280;12365;43.554;1.388;2023-02-04T02:43:20;101706.25;;;4.08;58.42
24234;BME280;12365;43.554;1.388;2023-02-04T02:45:47;101706.84;;;4.05;57.92
24234;BME280;12365;43.554;1.388;2023-02-04T02:48:13;101704.84;;;4.03;58.08
24234;BME280;12365;43.554;1.388;2023-02-04T02:50:39;101701.19;;;4.01;58.45
24234;BME280;12365;43.554;1.388;2023-02-04T02:53:14;101693.13;;;3.98;58.53
24234;BME280;12365;43.554;1.388;2023-02-04T02:55:41;101687.59;;;3.95;58.67
24234;BME280;12365;43.554;1.388;2023-02-04T02:58:27;101700.88;;;3.98;58.44
24234;BME280;12365;43.554;1.388;2023-02-04T03:00:55;101706.75;;;3.97;58.20
24234;BME280;12365;43.554;1.388;2023-02-04T03:03:25;101694.63;;;3.96;58.50
24234;BME280;12365;43.554;1.388;2023-02-04T03:05:54;101693.53;;;3.94;58.23
24234;BME280;12365;43.554;1.388;2023-02-04T03:08:22;101685.63;;;3.92;58.48
24234;BME280;12365;43.554;1.388;2023-02-04T03:10:47;101682.13;;;3.91;58.41
24234;BME280;12365;43.554;1.388;2023-02-04T03:13:14;101675.75;;;3.88;58.27
24234;BME280;12365;43.554;1.388;2023-02-04T03:15:41;101677.06;;;3.84;58.25
24234;BME280;12365;43.554;1.388;2023-02-04T03:18:09;101679.34;;;3.81;58.25
24234;BME280;12365;43.554;1.388;2023-02-04T03:20:35;101683.00;;;3.83;58.80
24234;BME280;12365;43.554;1.388;2023-02-04T03:23:01;101670.84;;;3.82;58.75
24234;BME280;12365;43.554;1.388;2023-02-04T03:25:27;101667.19;;;3.80;58.96
24234;BME280;12365;43.554;1.388;2023-02-04T03:27:53;101664.75;;;3.82;58.48
24234;BME280;12365;43.554;1.388;2023-02-04T03:30:23;101662.75;;;3.79;58.97
24234;BME280;12365;43.554;1.388;2023-02-04T03:32:49;101665.69;;;3.82;58.65
24234;BME280;12365;43.554;1.388;2023-02-04T03:35:14;101669.91;;;3.82;58.71
24234;BME280;12365;43.554;1.388;2023-02-04T03:37:40;101668.09;;;3.81;58.71
24234;BME280;12365;43.554;1.388;2023-02-04T03:40:06;101662.75;;;3.79;58.95
24234;BME280;12365;43.554;1.388;2023-02-04T03:42:31;101672.00;;;3.77;59.21
24234;BME280;12365;43.554;1.388;2023-02-04T03:44:57;101675.34;;;3.76;59.08
24234;BME280;12365;43.554;1.388;2023-02-04T03:47:22;101666.53;;;3.74;58.88
24234;BME280;12365;43.554;1.388;2023-02-04T03:49:48;101674.28;;;3.74;58.68
24234;BME280;12365;43.554;1.388;2023-02-04T03:52:13;101665.44;;;3.72;59.22
24234;BME280;12365;43.554;1.388;2023-02-04T03:54:38;101661.97;;;3.72;59.20
24234;BME280;12365;43.554;1.388;2023-02-04T03:57:04;101667.72;;;3.69;58.77
24234;BME280;12365;43.554;1.388;2023-02-04T03:59:29;101671.06;;;3.68;59.11
24234;BME280;12365;43.554;1.388;2023-02-04T04:01:54;101676.94;;;3.67;59.16
24234;BME280;12365;43.554;1.388;2023-02-04T04:04:20;101679.53;;;3.67;58.80
24234;BME280;12365;43.554;1.388;2023-02-04T04:06:45;101676.81;;;3.65;58.95
24234;BME280;12365;43.554;1.388;2023-02-04T04:09:11;101683.47;;;3.63;59.01
24234;BME280;12365;43.554;1.388;2023-02-04T04:11:36;101678.91;;;3.61;59.02
24234;BME280;12365;43.554;1.388;2023-02-04T04:14:02;101681.75;;;3.55;58.84
24234;BME280;12365;43.554;1.388;2023-02-04T04:16:27;101683.81;;;3.51;59.15
24234;BME280;12365;43.554;1.388;2023-02-04T04:18:53;101681.84;;;3.48;59.17
24234;BME280;12365;43.554;1.388;2023-02-04T04:21:18;101683.00;;;3.43;59.42
24234;BME280;12365;43.554;1.388;2023-02-04T04:23:44;101686.34;;;3.42;59.02
24234;BME280;12365;43.554;1.388;2023-02-04T04:26:09;101681.78;;;3.39;59.30
24234;BME280;12365;43.554;1.388;2023-02-04T04:28:34;101676.84;;;3.34;59.11
24234;BME280;12365;43.554;1.388;2023-02-04T04:31:00;101683.50;;;3.32;59.13
24234;BME280;12365;43.554;1.388;2023-02-04T04:33:25;101676.53;;;3.31;59.06
24234;BME280;12365;43.554;1.388;2023-02-04T04:35:51;101685.94;;;3.30;59.04
24234;BME280;12365;43.554;1.388;2023-02-04T04:38:16;101682.59;;;3.31;59.21
24234;BME280;12365;43.554;1.388;2023-02-04T04:40:41;101674.88;;;3.31;59.33
24234;BME280;12365;43.554;1.388;2023-02-04T04:43:07;101677.03;;;3.35;59.23
24234;BME280;12365;43.554;1.388;2023-02-04T04:45:32;101689.03;;;3.35;59.18
24234;BME280;12365;43.554;1.388;2023-02-04T04:47:57;101695.84;;;3.34;59.40
24234;BME280;12365;43.554;1.388;2023-02-04T04:50:23;101688.66;;;3.32;59.38
24234;BME280;12365;43.554;1.388;2023-02-04T04:52:48;101681.69;;;3.31;59.50
24234;BME280;12365;43.554;1.388;2023-02-04T04:55:14;101692.91;;;3.31;59.18
24234;BME280;12365;43.554;1.388;2023-02-04T04:57:39;101693.69;;;3.30;59.40
24234;BME280;12365;43.554;1.388;2023-02-04T05:00:06;101689.69;;;3.25;59.39
24234;BME280;12365;43.554;1.388;2023-02-04T05:02:32;101687.69;;;3.22;59.45
24234;BME280;12365;43.554;1.388;2023-02-04T05:04:57;101683.13;;;3.20;59.30
24234;BME280;12365;43.554;1.388;2023-02-04T05:07:23;101685.53;;;3.18;59.38
24234;BME280;12365;43.554;1.388;2023-02-04T05:09:48;101674.88;;;3.15;59.16
24234;BME280;12365;43.554;1.388;2023-02-04T05:12:14;101683.97;;;3.12;59.48
24234;BME280;12365;43.554;1.388;2023-02-04T05:14:40;101692.44;;;3.11;59.33
24234;BME280;12365;43.554;1.388;2023-02-04T05:17:05;101695.78;;;3.10;59.31
24234;BME280;12365;43.554;1.388;2023-02-04T05:19:31;101697.59;;;3.11;59.41
24234;BME280;12365;43.554;1.388;2023-02-04T05:21:56;101693.94;;;3.09;59.40
24234;BME280;12365;43.554;1.388;2023-02-04T05:24:22;101696.50;;;3.09;59.54
24234;BME280;12365;43.554;1.388;2023-02-04T05:26:47;101710.91;;;3.07;59.68
24234;BME280;12365;43.554;1.388;2023-02-04T05:29:12;101699.00;;;3.00;59.71
24234;BME280;12365;43.554;1.388;2023-02-04T05:31:38;101698.34;;;2.94;59.50
24234;BME280;12365;43.554;1.388;2023-02-04T05:34:03;101693.41;;;2.88;59.46
24234;BME280;12365;43.554;1.388;2023-02-04T05:36:29;101696.44;;;2.84;59.55
24234;BME280;12365;43.554;1.388;2023-02-04T05:38:54;101700.50;;;2.82;59.36
24234;BME280;12365;43.554;1.388;2023-02-04T05:41:19;101689.69;;;2.77;59.70
24234;BME280;12365;43.554;1.388;2023-02-04T05:43:45;101698.75;;;2.74;59.65
24234;BME280;12365;43.554;1.388;2023-02-04T05:46:10;101692.50;;;2.72;59.67
24234;BME280;12365;43.554;1.388;2023-02-04T05:48:35;101692.19;;;2.69;59.67
24234;BME280;12365;43.554;1.388;2023-02-04T05:51:01;101696.06;;;2.65;59.75
24234;BME280;12365;43.554;1.388;2023-02-04T05:53:26;101699.53;;;2.66;59.64
24234;BME280;12365;43.554;1.388;2023-02-04T05:55:52;101702.13;;;2.66;59.62
24234;BME280;12365;43.554;1.388;2023-02-04T05:58:17;101702.53;;;2.62;59.96
24234;BME280;12365;43.554;1.388;2023-02-04T06:00:43;101700.38;;;2.57;59.77
24234;BME280;12365;43.554;1.388;2023-02-04T06:03:08;101701.84;;;2.55;59.68
24234;BME280;12365;43.554;1.388;2023-02-04T06:05:33;101703.38;;;2.53;59.72
24234;BME280;12365;43.554;1.388;2023-02-04T06:07:59;101705.56;;;2.50;59.92
24234;BME280;12365;43.554;1.388;2023-02-04T06:10:24;101705.56;;;2.50;59.87
24234;BME280;12365;43.554;1.388;2023-02-04T06:12:49;101707.81;;;2.47;59.50
24234;BME280;12365;43.554;1.388;2023-02-04T06:15:15;101711.16;;;2.46;59.75
24234;BME280;12365;43.554;1.388;2023-02-04T06:17:40;101708.06;;;2.42;59.48
24234;BME280;12365;43.554;1.388;2023-02-04T06:20:06;101713.03;;;2.40;59.53
24234;BME280;12365;43.554;1.388;2023-02-04T06:22:32;101709.78;;;2.34;59.71
24234;BME280;12365;43.554;1.388;2023-02-04T06:24:57;101723.03;;;2.30;59.84
24234;BME280;12365;43.554;1.388;2023-02-04T06:27:23;101723.03;;;2.30;59.79
24234;BME280;12365;43.554;1.388;2023-02-04T06:29:49;101723.47;;;2.26;59.66
24234;BME280;12365;43.554;1.388;2023-02-04T06:32:15;101722.38;;;2.24;59.92
24234;BME280;12365;43.554;1.388;2023-02-04T06:34:41;101731.75;;;2.23;59.69
24234;BME280;12365;43.554;1.388;2023-02-04T06:37:06;101728.25;;;2.23;59.58
24234;BME280;12365;43.554;1.388;2023-02-04T06:39:31;101730.47;;;2.20;59.89
24234;BME280;12365;43.554;1.388;2023-02-04T06:41:57;101733.06;;;2.20;59.56
24234;BME280;12365;43.554;1.388;2023-02-04T06:44:22;101737.13;;;2.17;59.60
24234;BME280;12365;43.554;1.388;2023-02-04T06:46:48;101735.28;;;2.16;59.70
24234;BME280;12365;43.554;1.388;2023-02-04T06:49:13;101739.53;;;2.16;59.75
24234;BME280;12365;43.554;1.388;2023-02-04T06:51:38;101738.63;;;2.15;59.83
24234;BME280;12365;43.554;1.388;2023-02-04T06:54:04;101727.22;;;2.13;59.81
24234;BME280;12365;43.554;1.388;2023-02-04T06:56:29;101729.28;;;2.09;59.60
24234;BME280;12365;43.554;1.388;2023-02-04T06:58:54;101733.34;;;2.07;59.90
24234;BME280;12365;43.554;1.388;2023-02-04T07:01:20;101737.38;;;2.05;59.49
24234;BME280;12365;43.554;1.388;2023-02-04T07:03:45;101743.28;;;2.04;59.95
24234;BME280;12365;43.554;1.388;2023-02-04T07:06:11;101740.72;;;2.04;59.52
24234;BME280;12365;43.554;1.388;2023-02-04T07:08:36;101734.81;;;2.05;59.80
24234;BME280;12365;43.554;1.388;2023-02-04T07:11:01;101735.38;;;2.02;59.32
24234;BME280;12365;43.554;1.388;2023-02-04T07:13:27;101749.34;;;2.04;59.81
24234;BME280;12365;43.554;1.388;2023-02-04T07:15:52;101739.47;;;2.00;59.80
24234;BME280;12365;43.554;1.388;2023-02-04T07:18:18;101748.66;;;1.98;59.70
24234;BME280;12365;43.554;1.388;2023-02-04T07:20:44;101741.50;;;1.95;59.32
24234;BME280;12365;43.554;1.388;2023-02-04T07:23:09;101736.19;;;1.94;59.53
24234;BME280;12365;43.554;1.388;2023-02-04T07:25:35;101735.09;;;1.92;59.43
24234;BME280;12365;43.554;1.388;2023-02-04T07:28:00;101742.41;;;1.96;59.87
24234;BME280;12365;43.554;1.388;2023-02-04T07:30:28;101739.09;;;1.97;59.60
24234;BME280;12365;43.554;1.388;2023-02-04T07:32:53;101735.47;;;1.95;59.42
24234;BME280;12365;43.554;1.388;2023-02-04T07:35:19;101747.19;;;2.00;59.49
24234;BME280;12365;43.554;1.388;2023-02-04T07:37:44;101750.81;;;2.02;59.95
24234;BME280;12365;43.554;1.388;2023-02-04T07:40:11;101752.25;;;2.07;59.90
24234;BME280;12365;43.554;1.388;2023-02-04T07:42:36;101756.28;;;2.12;59.41
24234;BME280;12365;43.554;1.388;2023-02-04T07:45:02;101763.81;;;2.18;59.34
24234;BME280;12365;43.554;1.388;2023-02-04T07:47:28;101763.38;;;2.22;59.60
24234;BME280;12365;43.554;1.388;2023-02-04T07:49:53;101756.94;;;2.26;59.75
24234;BME280;12365;43.554;1.388;2023-02-04T07:52:22;101760.00;;;2.30;59.80
24234;BME280;12365;43.554;1.388;2023-02-04T07:54:47;101761.38;;;2.43;59.50
24234;BME280;12365;43.554;1.388;2023-02-04T07:57:13;101755.78;;;2.54;59.25
24234;BME280;12365;43.554;1.388;2023-02-04T07:59:38;101762.66;;;2.69;59.62
24234;BME280;12365;43.554;1.388;2023-02-04T08:02:04;101753.47;;;2.87;59.45
24234;BME280;12365;43.554;1.388;2023-02-04T08:04:29;101758.81;;;3.04;59.45
24234;BME280;12365;43.554;1.388;2023-02-04T08:06:54;101765.97;;;3.23;59.53
24234;BME280;12365;43.554;1.388;2023-02-04T08:09:20;101770.91;;;3.44;59.45
24234;BME280;12365;43.554;1.388;2023-02-04T08:11:45;101768.31;;;3.60;58.94
24234;BME280;12365;43.554;1.388;2023-02-04T08:14:11;101773.75;;;3.79;58.95
24234;BME280;12365;43.554;1.388;2023-02-04T08:16:36;101781.31;;;3.94;59.10
24234;BME280;12365;43.554;1.388;2023-02-04T08:19:02;101784.03;;;4.11;58.75
24234;BME280;12365;43.554;1.388;2023-02-04T08:21:28;101779.09;;;4.21;58.71
24234;BME280;12365;43.554;1.388;2023-02-04T08:23:53;101779.63;;;4.34;58.94
24234;BME280;12365;43.554;1.388;2023-02-04T08:26:19;101787.75;;;4.46;58.58
24234;BME280;12365;43.554;1.388;2023-02-04T08:28:44;101789.94;;;4.59;58.56
24234;BME280;12365;43.554;1.388;2023-02-04T08:31:10;101787.09;;;4.73;58.29
24234;BME280;12365;43.554;1.388;2023-02-04T08:33:37;101799.06;;;4.89;58.52
24234;BME280;12365;43.554;1.388;2023-02-04T08:36:04;101799.38;;;5.00;58.83
24234;BME280;12365;43.554;1.388;2023-02-04T08:38:29;101798.81;;;5.12;58.62
24234;BME280;12365;43.554;1.388;2023-02-04T08:40:55;101801.28;;;5.28;58.01
24234;BME280;12365;43.554;1.388;2023-02-04T08:43:20;101806.50;;;5.45;58.64
24234;BME280;12365;43.554;1.388;2023-02-04T08:45:46;101803.78;;;5.52;58.46
24234;BME280;12365;43.554;1.388;2023-02-04T08:48:11;101806.53;;;5.62;58.64
24234;BME280;12365;43.554;1.388;2023-02-04T08:50:37;101799.84;;;5.73;58.56
24234;BME280;12365;43.554;1.388;2023-02-04T08:53:02;101799.22;;;5.84;58.48
24234;BME280;12365;43.554;1.388;2023-02-04T08:55:27;101799.41;;;5.95;58.03
24234;BME280;12365;43.554;1.388;2023-02-04T08:57:53;101802.75;;;6.02;58.34
24234;BME280;12365;43.554;1.388;2023-02-04T09:00:18;101801.97;;;6.12;57.80
24234;BME280;12365;43.554;1.388;2023-02-04T09:02:44;101805.94;;;6.26;58.11
24234;BME280;12365;43.554;1.388;2023-02-04T09:05:09;101803.59;;;6.38;57.96
24234;BME280;12365;43.554;1.388;2023-02-04T09:07:34;101800.69;;;6.52;58.33
24234;BME280;12365;43.554;1.388;2023-02-04T09:10:00;101801.44;;;6.60;58.15
24234;BME280;12365;43.554;1.388;2023-02-04T09:12:25;101811.31;;;6.72;58.13
24234;BME280;12365;43.554;1.388;2023-02-04T09:14:50;101811.28;;;6.81;58.02
24234;BME280;12365;43.554;1.388;2023-02-04T09:17:16;101808.81;;;6.91;58.05
24234;BME280;12365;43.554;1.388;2023-02-04T09:19:41;101808.13;;;7.03;57.78
24234;BME280;12365;43.554;1.388;2023-02-04T09:22:07;101801.97;;;7.11;57.82
24234;BME280;12365;43.554;1.388;2023-02-04T09:24:32;101804.66;;;7.21;57.90
24234;BME280;12365;43.554;1.388;2023-02-04T09:26:58;101802.94;;;7.30;57.74
24234;BME280;12365;43.554;1.388;2023-02-04T09:29:23;101800.88;;;7.45;57.74
24234;BME280;12365;43.554;1.388;2023-02-04T09:31:49;101812.41;;;7.57;57.84
24234;BME280;12365;43.554;1.388;2023-02-04T09:34:14;101815.06;;;7.68;57.34
24234;BME280;12365;43.554;1.388;2023-02-04T09:36:39;101812.69;;;7.79;57.58
24234;BME280;12365;43.554;1.388;2023-02-04T09:39:06;101814.59;;;7.91;57.49
24234;BME280;12365;43.554;1.388;2023-02-04T09:41:33;101811.00;;;7.99;57.54
24234;BME280;12365;43.554;1.388;2023-02-04T09:43:59;101813.44;;;8.16;57.61
24234;BME280;12365;43.554;1.388;2023-02-04T09:46:26;101809.88;;;8.35;57.44
24234;BME280;12365;43.554;1.388;2023-02-04T09:48:57;101808.97;;;8.53;57.42
24234;BME280;12365;43.554;1.388;2023-02-04T09:51:26;101807.09;;;8.71;57.17
24234;BME280;12365;43.554;1.388;2023-02-04T09:53:53;101797.88;;;8.85;57.15
24234;BME280;12365;43.554;1.388;2023-02-04T09:56:20;101808.75;;;9.10;56.79
24234;BME280;12365;43.554;1.388;2023-02-04T09:58:45;101796.66;;;9.21;57.01
24234;BME280;12365;43.554;1.388;2023-02-04T10:01:16;101795.91;;;9.32;56.97
24234;BME280;12365;43.554;1.388;2023-02-04T10:03:43;101805.00;;;9.47;56.70
24234;BME280;12365;43.554;1.388;2023-02-04T10:06:13;101806.81;;;9.59;56.75
24234;BME280;12365;43.554;1.388;2023-02-04T10:08:39;101803.31;;;9.68;56.35
24234;BME280;12365;43.554;1.388;2023-02-04T10:11:06;101794.97;;;9.83;56.31
24234;BME280;12365;43.554;1.388;2023-02-04T10:13:45;101800.16;;;9.93;56.61
24234;BME280;12365;43.554;1.388;2023-02-04T10:16:14;101783.69;;;10.04;56.06
24234;BME280;12365;43.554;1.388;2023-02-04T10:18:41;101794.75;;;10.12;55.96
24234;BME280;12365;43.554;1.388;2023-02-04T10:24:05;101793.94;;;10.33;55.81
24234;BME280;12365;43.554;1.388;2023-02-04T10:26:31;101792.59;;;10.49;55.48
24234;BME280;12365;43.554;1.388;2023-02-04T10:34:18;101797.22;;;10.85;55.61
24234;BME280;12365;43.554;1.388;2023-02-04T10:36:55;101799.28;;;10.89;55.19
24234;BME280;12365;43.554;1.388;2023-02-04T10:39:27;101798.84;;;10.95;54.97
24234;BME280;12365;43.554;1.388;2023-02-04T10:41:53;101786.03;;;10.98;54.68
24234;BME280;12365;43.554;1.388;2023-02-04T10:47:15;101796.47;;;10.98;54.28
24234;BME280;12365;43.554;1.388;2023-02-04T10:49:51;101787.44;;;11.04;54.20
24234;BME280;12365;43.554;1.388;2023-02-04T10:52:19;101795.97;;;11.14;53.62
24234;BME280;12365;43.554;1.388;2023-02-04T10:54:46;101789.06;;;11.14;53.88
24234;BME280;12365;43.554;1.388;2023-02-04T10:57:25;101781.47;;;11.17;53.65
24234;BME280;12365;43.554;1.388;2023-02-04T10:59:53;101789.66;;;11.22;53.21
24234;BME280;12365;43.554;1.388;2023-02-04T11:02:42;101788.56;;;11.30;53.11
24234;BME280;12365;43.554;1.388;2023-02-04T11:05:13;101789.91;;;11.37;52.94
24234;BME280;12365;43.554;1.388;2023-02-04T11:07:39;101788.34;;;11.39;52.91
24234;BME280;12365;43.554;1.388;2023-02-04T11:10:05;101775.19;;;11.49;52.84
24234;BME280;12365;43.554;1.388;2023-02-04T11:12:41;101779.78;;;11.63;52.62
24234;BME280;12365;43.554;1.388;2023-02-04T11:18:23;101771.47;;;11.69;52.23
24234;BME280;12365;43.554;1.388;2023-02-04T11:20:52;101762.94;;;11.71;52.17
24234;BME280;12365;43.554;1.388;2023-02-04T11:28:27;101756.38;;;11.77;51.48
24234;BME280;12365;43.554;1.388;2023-02-04T11:31:12;101748.06;;;11.70;51.43
24234;BME280;12365;43.554;1.388;2023-02-04T11:33:40;101747.25;;;11.71;51.42
24234;BME280;12365;43.554;1.388;2023-02-04T11:36:09;101752.78;;;11.86;51.38
24234;BME280;12365;43.554;1.388;2023-02-04T11:38:36;101747.78;;;12.01;51.21
24234;BME280;12365;43.554;1.388;2023-02-04T11:41:02;101737.53;;;12.16;50.96
24234;BME280;12365;43.554;1.388;2023-02-04T11:43:32;101742.72;;;12.28;50.73
24234;BME280;12365;43.554;1.388;2023-02-04T11:46:04;101735.13;;;12.31;50.85
24234;BME280;12365;43.554;1.388;2023-02-04T11:48:30;101727.00;;;12.40;50.82
24234;BME280;12365;43.554;1.388;2023-02-04T11:50:57;101727.00;;;12.51;50.52
24234;BME280;12365;43.554;1.388;2023-02-04T11:53:30;101720.16;;;12.53;50.53
24234;BME280;12365;43.554;1.388;2023-02-04T11:55:57;101725.34;;;12.65;50.29
24234;BME280;12365;43.554;1.388;2023-02-04T11:58:22;101721.69;;;12.75;50.21
24234;BME280;12365;43.554;1.388;2023-02-04T12:00:53;101718.47;;;12.79;50.08
24234;BME280;12365;43.554;1.388;2023-02-04T12:05:51;101698.97;;;12.87;49.65
24234;BME280;12365;43.554;1.388;2023-02-04T12:08:25;101694.84;;;12.91;49.80
24234;BME280;12365;43.554;1.388;2023-02-04T12:13:23;101695.16;;;12.95;49.43
24234;BME280;12365;43.554;1.388;2023-02-04T12:15:59;101694.38;;;12.96;49.39
24234;BME280;12365;43.554;1.388;2023-02-04T12:18:26;101692.44;;;12.94;49.07
24234;BME280;12365;43.554;1.388;2023-02-04T12:20:55;101695.59;;;13.01;49.15
24234;BME280;12365;43.554;1.388;2023-02-04T12:23:21;101687.78;;;13.15;49.05
24234;BME280;12365;43.554;1.388;2023-02-04T12:25:47;101687.47;;;13.23;48.78
24234;BME280;12365;43.554;1.388;2023-02-04T12:28:13;101691.66;;;13.33;48.75
24234;BME280;12365;43.554;1.388;2023-02-04T12:30:38;101681.88;;;13.31;48.54
24234;BME280;12365;43.554;1.388;2023-02-04T12:33:04;101683.13;;;13.24;48.54
24234;BME280;12365;43.554;1.388;2023-02-04T12:35:29;101676.75;;;13.32;48.51
24234;BME280;12365;43.554;1.388;2023-02-04T12:37:55;101673.63;;;13.38;48.24
24234;BME280;12365;43.554;1.388;2023-02-04T12:40:21;101676.38;;;13.39;48.21
24234;BME280;12365;43.554;1.388;2023-02-04T12:42:46;101671.31;;;13.42;48.20
24234;BME280;12365;43.554;1.388;2023-02-04T12:45:13;101667.81;;;13.42;48.05
24234;BME280;12365;43.554;1.388;2023-02-04T12:47:39;101663.25;;;13.39;48.05
24234;BME280;12365;43.554;1.388;2023-02-04T12:50:06;101654.38;;;13.37;47.98
24234;BME280;12365;43.554;1.388;2023-02-04T12:52:32;101657.31;;;13.42;47.96
24234;BME280;12365;43.554;1.388;2023-02-04T12:54:57;101643.38;;;13.43;47.86
24234;BME280;12365;43.554;1.388;2023-02-04T12:57:24;101646.50;;;13.51;47.91
24234;BME280;12365;43.554;1.388;2023-02-04T12:59:49;101636.34;;;13.55;47.67
24234;BME280;12365;43.554;1.388;2023-02-04T13:02:15;101638.44;;;13.61;47.61
24234;BME280;12365;43.554;1.388;2023-02-04T13:04:40;101626.53;;;13.66;47.33
24234;BME280;12365;43.554;1.388;2023-02-04T13:07:07;101621.28;;;13.66;47.19
24234;BME280;12365;43.554;1.388;2023-02-04T13:09:33;101618.56;;;13.64;47.19
24234;BME280;12365;43.554;1.388;2023-02-04T13:11:59;101623.09;;;13.67;47.22
24234;BME280;12365;43.554;1.388;2023-02-04T13:14:24;101628.34;;;13.67;47.23
24234;BME280;12365;43.554;1.388;2023-02-04T13:16:50;101627.25;;;13.63;47.10
24234;BME280;12365;43.554;1.388;2023-02-04T13:19:15;101619.97;;;13.59;46.99